Time;durP1;ratioP1;P1;durP2;ratioP2;P2;SDS_P1;SDS_P2;PMS_P1;PMS_P2;Temp;Humidity;BMP_temperature;BMP_pressure;BME280_temperature;BME280_humidity;BME280_pressure;Samples;Min_cycle;Max_cycle;Signal;HPM_P1;HPM_P2
2022/01/13 00:02:41;;;;;;;;;39.00;33.25;;;;;;;;5019921;28;51166;-50
2022/01/13 00:05:29;;;;;;;;;38.50;32.50;;;;;;;;5019498;28;51149;-51
2022/01/13 00:08:29;;;;;;;;;34.75;28.25;;;;;;;;5019715;28;51731;-49
2022/01/13 00:11:33;;;;;;;;;30.25;27.50;;;;;;;;5019738;28;51213;-52
2022/01/13 00:14:26;;;;;;;;;37.75;30.50;;;;;;;;5019951;28;51062;-51
2022/01/13 00:17:32;;;;;;;;;37.25;30.25;;;;;;;;5015374;28;51035;-50
2022/01/13 00:25:56;;;;;;;;;35.25;31.50;;;;;;;;5019473;28;51205;-50
2022/01/13 00:28:48;;;;;;;;;35.50;31.50;;;;;;;;5004332;28;51521;-50
2022/01/13 00:31:45;;;;;;;;;38.50;32.75;;;;;;;;4999752;28;51557;-48
2022/01/13 00:34:32;;;;;;;;;41.25;33.00;;;;;;;;5018055;28;51211;-45
2022/01/13 00:37:17;;;;;;;;;34.00;31.25;;;;;;;;5018739;28;51188;-48
2022/01/13 00:40:02;;;;;;;;;38.50;32.75;;;;;;;;5019348;28;51153;-49
2022/01/13 00:42:58;;;;;;;;;35.00;30.50;;;;;;;;5004503;28;51280;-50
2022/01/13 00:45:53;;;;;;;;;34.50;30.00;;;;;;;;5019420;28;51097;-48
2022/01/13 00:48:49;;;;;;;;;35.00;29.50;;;;;;;;5018317;28;51553;-50
2022/01/13 00:51:36;;;;;;;;;39.00;31.50;;;;;;;;5035065;28;51214;-49
2022/01/13 00:54:22;;;;;;;;;37.50;30.25;;;;;;;;5039340;28;51185;-49
2022/01/13 00:57:06;;;;;;;;;41.00;30.75;;;;;;;;5038982;28;51153;-50
2022/01/13 01:00:01;;;;;;;;;36.25;29.75;;;;;;;;5038956;28;51187;-52
2022/01/13 01:03:16;;;;;;;;;36.25;30.00;;;;;;;;5036713;28;51067;-52
2022/01/13 01:06:03;;;;;;;;;27.25;25.25;;;;;;;;5039392;28;51240;-52
2022/01/13 01:08:49;;;;;;;;;38.25;30.75;;;;;;;;5039174;28;51458;-52
2022/01/13 01:11:33;;;;;;;;;33.75;29.00;;;;;;;;5039202;28;51142;-52
2022/01/13 01:14:24;;;;;;;;;32.25;29.50;;;;;;;;5038885;28;51605;-51
2022/01/13 01:17:11;;;;;;;;;38.50;31.75;;;;;;;;5037600;28;52621;-50
2022/01/13 01:19:56;;;;;;;;;40.25;33.00;;;;;;;;5039517;28;51544;-51
2022/01/13 01:23:26;;;;;;;;;38.25;30.50;;;;;;;;5038930;28;51136;-52
2022/01/13 01:26:24;;;;;;;;;40.25;32.00;;;;;;;;5036269;28;51235;-49
2022/01/13 01:32:10;;;;;;;;;38.75;33.50;;;;;;;;5039311;28;51005;-50
2022/01/13 01:34:57;;;;;;;;;40.75;32.00;;;;;;;;5038779;28;51328;-46
2022/01/13 01:37:43;;;;;;;;;41.50;33.00;;;;;;;;5038824;28;51107;-51
2022/01/13 01:40:27;;;;;;;;;37.50;30.00;;;;;;;;5038671;28;50986;-51
2022/01/13 01:43:13;;;;;;;;;40.50;32.25;;;;;;;;5038783;28;51118;-53
2022/01/13 01:46:02;;;;;;;;;38.00;33.50;;;;;;;;5038987;28;51155;-52
2022/01/13 01:49:03;;;;;;;;;37.75;31.50;;;;;;;;5031811;28;51056;-52
2022/01/13 01:51:56;;;;;;;;;43.75;32.75;;;;;;;;5038505;28;51011;-54
2022/01/13 01:54:40;;;;;;;;;37.75;30.75;;;;;;;;5038653;28;51128;-51
2022/01/13 01:57:31;;;;;;;;;44.75;33.00;;;;;;;;5038585;28;51206;-52
2022/01/13 02:00:20;;;;;;;;;41.25;29.25;;;;;;;;5038429;28;51030;-52
2022/01/13 02:03:19;;;;;;;;;37.00;31.00;;;;;;;;5037432;28;51206;-52
2022/01/13 02:06:04;;;;;;;;;42.00;32.50;;;;;;;;5038375;28;51475;-51
2022/01/13 02:08:50;;;;;;;;;38.00;32.50;;;;;;;;5037370;28;51158;-52
2022/01/13 02:11:50;;;;;;;;;39.75;31.50;;;;;;;;5038469;28;51239;-54
2022/01/13 02:14:56;;;;;;;;;36.25;31.00;;;;;;;;5041123;28;51194;-49
2022/01/13 02:17:42;;;;;;;;;33.00;28.50;;;;;;;;5041825;28;51030;-48
2022/01/13 02:20:48;;;;;;;;;36.25;29.50;;;;;;;;5041883;28;51029;-53
2022/01/13 02:23:35;;;;;;;;;34.00;31.00;;;;;;;;5042243;28;51155;-50
2022/01/13 02:26:21;;;;;;;;;35.50;29.25;;;;;;;;5041523;28;51086;-51
2022/01/13 02:29:07;;;;;;;;;36.00;31.25;;;;;;;;5041979;28;51155;-52
2022/01/13 02:32:12;;;;;;;;;40.75;32.00;;;;;;;;5026507;28;52012;-49
2022/01/13 02:35:17;;;;;;;;;33.00;30.25;;;;;;;;5041518;28;51102;-49
2022/01/13 02:38:01;;;;;;;;;35.50;27.75;;;;;;;;5041872;28;51132;-52
2022/01/13 02:41:06;;;;;;;;;36.25;29.75;;;;;;;;5041506;28;51321;-46
2022/01/13 02:44:03;;;;;;;;;37.00;28.50;;;;;;;;5026166;28;51007;-51
2022/01/13 02:50:00;;;;;;;;;35.75;30.00;;;;;;;;5041318;28;51024;-52
2022/01/13 02:52:46;;;;;;;;;31.50;30.25;;;;;;;;5040952;28;51407;-47
2022/01/13 02:55:32;;;;;;;;;40.75;34.25;;;;;;;;5041169;28;51089;-47
2022/01/13 02:58:36;;;;;;;;;40.25;30.25;;;;;;;;5041534;28;51491;-55
2022/01/13 03:01:20;;;;;;;;;36.50;29.75;;;;;;;;5041183;28;51081;-51
2022/01/13 03:04:14;;;;;;;;;35.75;30.25;;;;;;;;5041161;28;51125;-51
2022/01/13 03:07:00;;;;;;;;;38.25;30.25;;;;;;;;5040839;28;51109;-51
2022/01/13 03:10:03;;;;;;;;;35.75;30.25;;;;;;;;5040939;28;51200;-50
2022/01/13 03:12:50;;;;;;;;;28.00;25.50;;;;;;;;5041010;28;51048;-49
2022/01/13 03:15:43;;;;;;;;;36.25;29.50;;;;;;;;5041179;28;51123;-52
2022/01/13 03:18:33;;;;;;;;;28.50;27.50;;;;;;;;5041099;28;51160;-52
2022/01/13 03:21:18;;;;;;;;;35.00;27.50;;;;;;;;5040708;28;51152;-50
2022/01/13 03:24:15;;;;;;;;;35.50;30.75;;;;;;;;5040686;28;51089;-49
2022/01/13 03:27:02;;;;;;;;;31.75;28.00;;;;;;;;5040531;28;51131;-55
2022/01/13 03:29:49;;;;;;;;;35.00;29.75;;;;;;;;5040919;28;51194;-51
2022/01/13 03:32:37;;;;;;;;;33.75;29.75;;;;;;;;5025943;28;51119;-52
2022/01/13 03:35:29;;;;;;;;;37.25;29.50;;;;;;;;5040668;28;51519;-50
2022/01/13 03:38:14;;;;;;;;;31.75;28.50;;;;;;;;5040117;28;51190;-48
2022/01/13 03:41:00;;;;;;;;;29.50;25.75;;;;;;;;5025235;28;51152;-53
2022/01/13 03:43:46;;;;;;;;;34.25;29.25;;;;;;;;5040241;28;51610;-50
2022/01/13 03:46:31;;;;;;;;;36.50;29.50;;;;;;;;5040329;28;51052;-48
2022/01/13 03:49:17;;;;;;;;;29.75;26.00;;;;;;;;5040149;28;51024;-49
2022/01/13 03:52:13;;;;;;;;;31.75;26.00;;;;;;;;5040101;28;51179;-48
2022/01/13 03:55:16;;;;;;;;;35.75;31.25;;;;;;;;5040231;28;51182;-52
2022/01/13 03:58:03;;;;;;;;;32.25;30.75;;;;;;;;5040253;28;51094;-52
2022/01/13 04:00:57;;;;;;;;;35.50;29.00;;;;;;;;5040111;28;51503;-49
2022/01/13 04:03:46;;;;;;;;;36.50;31.00;;;;;;;;5039954;28;51460;-48
2022/01/13 04:06:43;;;;;;;;;36.25;31.25;;;;;;;;5039823;28;51171;-52
2022/01/13 04:09:34;;;;;;;;;34.25;32.00;;;;;;;;5039531;28;51139;-50
2022/01/13 04:12:20;;;;;;;;;36.00;31.50;;;;;;;;5039836;28;51304;-49
2022/01/13 04:15:21;;;;;;;;;44.25;32.00;;;;;;;;5039915;28;51543;-50
2022/01/13 04:18:14;;;;;;;;;37.25;31.25;;;;;;;;5040043;28;51072;-52
2022/01/13 04:21:02;;;;;;;;;41.75;34.50;;;;;;;;5039659;28;51600;-55
2022/01/13 04:23:57;;;;;;;;;38.75;30.75;;;;;;;;5040023;28;51148;-50
2022/01/13 04:26:56;;;;;;;;;44.50;34.00;;;;;;;;5039674;28;51182;-51
2022/01/13 04:29:45;;;;;;;;;42.00;34.00;;;;;;;;5039407;28;51144;-50
2022/01/13 04:32:31;;;;;;;;;41.00;32.00;;;;;;;;5039546;28;51201;-51
2022/01/13 04:35:29;;;;;;;;;37.50;32.75;;;;;;;;5039129;28;51190;-47
2022/01/13 04:38:13;;;;;;;;;42.75;32.75;;;;;;;;5039430;28;51112;-51
2022/01/13 04:41:00;;;;;;;;;38.00;32.25;;;;;;;;5039276;28;51657;-52
2022/01/13 04:43:55;;;;;;;;;38.75;30.75;;;;;;;;5039684;28;52095;-48
2022/01/13 04:46:46;;;;;;;;;43.50;35.50;;;;;;;;5039049;28;51028;-49
2022/01/13 04:49:43;;;;;;;;;45.00;34.25;;;;;;;;5039118;28;51151;-51
2022/01/13 04:52:28;;;;;;;;;38.50;32.00;;;;;;;;5039319;28;51578;-51
2022/01/13 04:55:22;;;;;;;;;37.50;33.25;;;;;;;;5039399;28;50965;-53
2022/01/13 04:58:07;;;;;;;;;41.00;35.00;;;;;;;;5039560;28;51048;-49
2022/01/13 05:00:52;;;;;;;;;40.75;34.25;;;;;;;;5034730;28;52157;-51
2022/01/13 05:03:49;;;;;;;;;44.25;35.00;;;;;;;;5033436;28;51090;-48
2022/01/13 05:06:36;;;;;;;;;47.25;36.75;;;;;;;;5039222;28;52218;-48
2022/01/13 05:09:42;;;;;;;;;44.50;35.50;;;;;;;;5039169;28;51070;-52
2022/01/13 05:12:33;;;;;;;;;47.00;36.25;;;;;;;;5039073;28;51163;-48
2022/01/13 05:15:22;;;;;;;;;42.75;34.25;;;;;;;;5039193;28;53058;-52
2022/01/13 05:21:54;;;;;;;;;42.00;34.25;;;;;;;;5020979;28;51247;-49
2022/01/13 05:24:40;;;;;;;;;45.50;38.00;;;;;;;;5039562;28;51089;-52
2022/01/13 05:27:27;;;;;;;;;47.50;35.75;;;;;;;;5038865;28;51037;-51
2022/01/13 05:30:15;;;;;;;;;4.50;0.00;;;;;;;;5039002;28;51217;-51
2022/01/13 05:33:12;;;;;;;;;45.25;36.50;;;;;;;;5038761;28;51185;-55
2022/01/13 05:36:02;;;;;;;;;51.00;40.50;;;;;;;;5038699;28;51124;-53
2022/01/13 05:38:50;;;;;;;;;52.00;41.00;;;;;;;;5038619;28;51132;-51
2022/01/13 05:41:38;;;;;;;;;48.00;38.75;;;;;;;;5034167;28;51115;-52
2022/01/13 05:44:36;;;;;;;;;50.25;41.00;;;;;;;;5038841;28;51011;-49
2022/01/13 05:47:21;;;;;;;;;54.75;42.25;;;;;;;;5039532;28;51018;-52
2022/01/13 05:50:07;;;;;;;;;50.25;37.00;;;;;;;;5041039;28;51129;-49
2022/01/13 05:52:52;;;;;;;;;51.00;40.50;;;;;;;;5042069;28;51458;-50
2022/01/13 05:55:39;;;;;;;;;52.75;41.25;;;;;;;;5041886;28;51149;-53
2022/01/13 05:58:34;;;;;;;;;52.75;42.00;;;;;;;;5042335;28;51121;-51
2022/01/13 06:01:40;;;;;;;;;57.75;43.25;;;;;;;;5028146;28;51612;-50
2022/01/13 06:04:28;;;;;;;;;49.25;40.50;;;;;;;;5021048;28;51541;-48
2022/01/13 06:07:15;;;;;;;;;53.75;41.50;;;;;;;;5022332;28;51162;-49
2022/01/13 06:10:18;;;;;;;;;57.75;46.00;;;;;;;;5022155;28;51744;-50
2022/01/13 06:13:07;;;;;;;;;58.75;45.75;;;;;;;;5021867;28;51077;-52
2022/01/13 06:15:52;;;;;;;;;53.00;43.25;;;;;;;;5022469;28;51069;-52
2022/01/13 06:18:46;;;;;;;;;56.50;44.25;;;;;;;;5021826;28;51038;-45
2022/01/13 06:21:53;;;;;;;;;52.00;41.75;;;;;;;;5006714;28;51198;-53
2022/01/13 06:24:39;;;;;;;;;58.25;46.25;;;;;;;;5022125;28;51101;-51
2022/01/13 06:27:29;;;;;;;;;52.25;40.50;;;;;;;;5021829;28;51022;-50
2022/01/13 06:30:15;;;;;;;;;50.00;39.00;;;;;;;;5021511;28;51552;-52
2022/01/13 06:32:59;;;;;;;;;52.75;42.50;;;;;;;;5021893;28;51074;-50
2022/01/13 06:35:44;;;;;;;;;53.50;43.25;;;;;;;;5021973;28;51533;-52
2022/01/13 06:38:31;;;;;;;;;55.25;42.75;;;;;;;;5021456;28;51058;-50
2022/01/13 06:41:16;;;;;;;;;49.75;42.25;;;;;;;;5021909;28;51077;-47
2022/01/13 06:44:06;;;;;;;;;52.25;41.00;;;;;;;;5020544;28;51038;-54
2022/01/13 06:46:51;;;;;;;;;56.00;44.00;;;;;;;;5020663;28;51185;-53
2022/01/13 06:49:38;;;;;;;;;51.00;41.50;;;;;;;;5020139;28;51241;-53
2022/01/13 06:52:24;;;;;;;;;52.50;40.00;;;;;;;;5032865;28;51232;-49
2022/01/13 06:55:09;;;;;;;;;55.00;42.50;;;;;;;;5041321;28;51423;-46
2022/01/13 06:57:55;;;;;;;;;53.25;41.25;;;;;;;;5041381;28;51593;-52
2022/01/13 07:00:40;;;;;;;;;55.00;43.75;;;;;;;;5039476;28;51658;-50
2022/01/13 07:03:25;;;;;;;;;54.00;41.50;;;;;;;;5038280;28;51368;-53
2022/01/13 07:06:20;;;;;;;;;61.25;45.00;;;;;;;;5041126;28;51012;-53
2022/01/13 07:09:06;;;;;;;;;60.75;43.50;;;;;;;;5040876;28;51080;-50
2022/01/13 07:11:54;;;;;;;;;60.00;46.75;;;;;;;;5041201;28;51068;-53
2022/01/13 07:14:40;;;;;;;;;58.00;45.00;;;;;;;;5039674;28;51332;-54
2022/01/13 07:17:28;;;;;;;;;45.75;38.50;;;;;;;;5040738;28;50997;-51
2022/01/13 07:20:27;;;;;;;;;53.75;43.75;;;;;;;;5040765;28;51403;-51
2022/01/13 07:23:18;;;;;;;;;57.75;43.00;;;;;;;;5039880;28;51119;-51
2022/01/13 07:26:07;;;;;;;;;56.50;44.75;;;;;;;;5040818;28;51594;-53
2022/01/13 07:29:02;;;;;;;;;51.75;43.00;;;;;;;;5037319;28;51356;-51
2022/01/13 07:32:08;;;;;;;;;54.00;42.75;;;;;;;;5040594;28;51104;-50
2022/01/13 07:35:00;;;;;;;;;52.00;41.75;;;;;;;;5040095;28;51408;-53
2022/01/13 07:37:52;;;;;;;;;60.00;45.75;;;;;;;;5040136;28;51319;-51
2022/01/13 07:40:39;;;;;;;;;52.50;41.75;;;;;;;;5037412;28;51139;-52
2022/01/13 07:43:28;;;;;;;;;55.25;43.75;;;;;;;;5040652;28;51151;-51
2022/01/13 07:46:15;;;;;;;;;54.50;41.75;;;;;;;;5038961;28;51340;-50
2022/01/13 07:49:02;;;;;;;;;54.50;41.25;;;;;;;;5039805;28;51399;-51
2022/01/13 07:51:46;;;;;;;;;49.75;40.00;;;;;;;;5039513;28;51170;-53
2022/01/13 07:54:56;;;;;;;;;54.00;40.50;;;;;;;;5039819;28;51154;-48
2022/01/13 07:57:41;;;;;;;;;49.50;39.25;;;;;;;;5040493;28;51177;-50
2022/01/13 08:00:25;;;;;;;;;51.25;40.75;;;;;;;;5040019;28;51406;-52
2022/01/13 08:03:19;;;;;;;;;61.75;46.00;;;;;;;;5039579;28;51180;-50
2022/01/13 08:06:05;;;;;;;;;51.25;41.75;;;;;;;;5039729;28;51120;-49
2022/01/13 08:09:13;;;;;;;;;58.25;44.50;;;;;;;;5040462;28;51084;-49
2022/01/13 08:12:07;;;;;;;;;51.25;41.25;;;;;;;;5039316;28;51400;-49
2022/01/13 08:15:03;;;;;;;;;61.50;43.75;;;;;;;;5039982;28;51161;-47
2022/01/13 08:20:53;;;;;;;;;56.00;46.00;;;;;;;;5039036;28;51115;-52
2022/01/13 08:23:41;;;;;;;;;55.00;44.75;;;;;;;;5039762;28;51107;-53
2022/01/13 08:26:29;;;;;;;;;56.25;43.25;;;;;;;;5039599;28;51542;-51
2022/01/13 08:29:17;;;;;;;;;49.75;38.75;;;;;;;;5039354;28;51200;-54
2022/01/13 08:32:01;;;;;;;;;55.25;44.50;;;;;;;;5039337;28;51443;-52
2022/01/13 08:34:48;;;;;;;;;55.50;42.25;;;;;;;;5039971;28;51186;-54
2022/01/13 08:37:33;;;;;;;;;58.25;45.25;;;;;;;;5026898;28;52674;-51
2022/01/13 08:40:17;;;;;;;;;55.25;43.75;;;;;;;;5037460;28;51126;-52
2022/01/13 08:43:09;;;;;;;;;52.50;41.50;;;;;;;;5039240;28;51633;-47
2022/01/13 08:46:03;;;;;;;;;48.00;39.00;;;;;;;;5039109;28;51171;-53
2022/01/13 08:48:49;;;;;;;;;50.50;41.25;;;;;;;;5039172;28;51142;-53
2022/01/13 08:51:38;;;;;;;;;49.50;39.75;;;;;;;;5033275;28;52136;-52
2022/01/13 08:54:27;;;;;;;;;52.25;36.50;;;;;;;;5018465;28;51063;-52
2022/01/13 08:57:12;;;;;;;;;49.50;39.00;;;;;;;;5017827;28;51230;-51
2022/01/13 08:59:57;;;;;;;;;45.75;37.50;;;;;;;;5017677;28;51056;-52
2022/01/13 09:03:07;;;;;;;;;35.75;31.25;;;;;;;;5018676;28;51487;-48
2022/01/13 09:05:51;;;;;;;;;43.25;34.50;;;;;;;;5018563;28;51210;-51
2022/01/13 09:08:36;;;;;;;;;39.75;33.00;;;;;;;;5009803;28;51724;-52
2022/01/13 09:11:25;;;;;;;;;42.75;34.75;;;;;;;;5018607;28;51123;-48
2022/01/13 09:14:12;;;;;;;;;35.75;27.00;;;;;;;;5018647;28;51019;-53
2022/01/13 09:17:08;;;;;;;;;41.50;34.50;;;;;;;;5018489;28;51461;-48
2022/01/13 09:20:04;;;;;;;;;47.75;37.50;;;;;;;;5018220;28;51190;-54
2022/01/13 09:22:55;;;;;;;;;36.75;31.75;;;;;;;;5018723;28;51165;-55
2022/01/13 09:25:43;;;;;;;;;41.00;30.75;;;;;;;;5022950;28;51085;-53
2022/01/13 09:28:31;;;;;;;;;38.75;32.00;;;;;;;;5022306;28;51117;-51
2022/01/13 09:31:18;;;;;;;;;44.00;35.25;;;;;;;;5022334;28;51141;-54
2022/01/13 09:34:24;;;;;;;;;45.50;34.25;;;;;;;;5021787;28;51132;-53
2022/01/13 09:37:09;;;;;;;;;46.50;38.25;;;;;;;;5022181;28;51176;-55
2022/01/13 09:40:17;;;;;;;;;50.00;38.75;;;;;;;;5022740;28;51069;-54
2022/01/13 09:43:05;;;;;;;;;44.25;34.50;;;;;;;;5016809;28;51445;-49
2022/01/13 09:45:50;;;;;;;;;34.25;30.50;;;;;;;;5022583;28;51132;-52
2022/01/13 09:48:37;;;;;;;;;42.50;32.75;;;;;;;;5022391;28;51116;-57
2022/01/13 09:51:38;;;;;;;;;35.75;31.00;;;;;;;;5022260;28;51156;-55
2022/01/13 09:54:28;;;;;;;;;38.00;30.50;;;;;;;;5043355;28;51088;-52
2022/01/13 09:57:13;;;;;;;;;32.75;29.75;;;;;;;;5041488;28;51520;-57
2022/01/13 10:00:03;;;;;;;;;34.50;30.75;;;;;;;;5042350;28;51614;-56
2022/01/13 10:02:48;;;;;;;;;39.00;33.25;;;;;;;;5030962;28;51356;-53
2022/01/13 10:05:37;;;;;;;;;37.00;32.00;;;;;;;;5049363;28;51439;-59
2022/01/13 10:08:47;;;;;;;;;37.50;30.75;;;;;;;;5047238;28;51183;-52
2022/01/13 10:11:44;;;;;;;;;38.25;32.25;;;;;;;;5046237;28;51077;-55
2022/01/13 10:17:46;;;;;;;;;34.25;28.25;;;;;;;;5048848;28;51121;-57
2022/01/13 10:20:33;;;;;;;;;33.00;28.25;;;;;;;;5041404;28;51113;-53
2022/01/13 10:23:18;;;;;;;;;35.75;28.75;;;;;;;;5026776;28;51149;-53
2022/01/13 10:26:14;;;;;;;;;30.00;28.00;;;;;;;;5045142;28;51101;-53
2022/01/13 10:28:59;;;;;;;;;34.75;31.00;;;;;;;;5026551;28;51145;-57
2022/01/13 10:31:45;;;;;;;;;37.00;27.50;;;;;;;;5041472;28;51144;-51
2022/01/13 10:34:32;;;;;;;;;28.00;27.75;;;;;;;;5039054;28;51458;-54
2022/01/13 10:37:17;;;;;;;;;33.50;29.50;;;;;;;;5041386;28;51650;-54
2022/01/13 10:40:07;;;;;;;;;37.25;29.75;;;;;;;;5041336;28;51135;-53
2022/01/13 10:43:12;;;;;;;;;41.50;31.50;;;;;;;;5041679;28;51032;-50
2022/01/13 10:46:22;;;;;;;;;31.50;28.75;;;;;;;;5041355;28;51454;-55
2022/01/13 10:49:07;;;;;;;;;41.50;29.75;;;;;;;;5040123;28;51059;-51
2022/01/13 10:52:21;;;;;;;;;32.00;27.25;;;;;;;;5038102;28;51721;-48
2022/01/13 10:55:05;;;;;;;;;41.00;32.00;;;;;;;;5037984;28;51151;-52
2022/01/13 10:57:51;;;;;;;;;32.00;28.50;;;;;;;;5032841;28;51259;-55
2022/01/13 11:00:48;;;;;;;;;35.75;29.75;;;;;;;;5040431;28;51462;-55
2022/01/13 11:03:34;;;;;;;;;39.75;30.00;;;;;;;;5038737;28;51528;-55
2022/01/13 11:06:31;;;;;;;;;33.50;28.50;;;;;;;;5038663;28;51135;-48
2022/01/13 11:09:23;;;;;;;;;30.75;25.25;;;;;;;;5039022;28;51718;-52
2022/01/13 11:12:07;;;;;;;;;35.25;28.75;;;;;;;;5040422;28;51112;-58
2022/01/13 11:15:08;;;;;;;;;34.50;29.50;;;;;;;;5040749;28;51263;-54
2022/01/13 11:18:15;;;;;;;;;35.50;28.75;;;;;;;;5039102;28;51169;-51
2022/01/13 11:21:19;;;;;;;;;32.25;28.75;;;;;;;;5040806;28;51209;-53
2022/01/13 11:24:04;;;;;;;;;34.25;30.00;;;;;;;;5041115;28;51159;-53
2022/01/13 11:26:49;;;;;;;;;27.25;26.75;;;;;;;;5040917;28;51188;-55
2022/01/13 11:29:46;;;;;;;;;33.75;30.75;;;;;;;;5040886;28;51175;-53
2022/01/13 11:32:35;;;;;;;;;30.50;28.25;;;;;;;;5040651;28;51166;-54
2022/01/13 11:35:26;;;;;;;;;29.00;28.00;;;;;;;;5040367;28;51010;-55
2022/01/13 11:38:27;;;;;;;;;30.00;26.75;;;;;;;;5040489;28;51525;-50
2022/01/13 11:41:17;;;;;;;;;27.75;24.75;;;;;;;;5025154;28;51145;-56
2022/01/13 11:44:21;;;;;;;;;28.00;26.75;;;;;;;;5040911;28;51140;-53
2022/01/13 11:47:26;;;;;;;;;25.00;24.00;;;;;;;;5040345;28;51184;-52
2022/01/13 11:50:21;;;;;;;;;31.00;27.25;;;;;;;;5040567;28;51032;-54
2022/01/13 11:53:35;;;;;;;;;31.50;27.50;;;;;;;;5038552;28;51164;-55
2022/01/13 11:56:25;;;;;;;;;25.50;24.00;;;;;;;;4979432;28;51207;-51
2022/01/13 11:59:10;;;;;;;;;32.50;26.50;;;;;;;;5038849;28;51498;-57
2022/01/13 12:02:20;;;;;;;;;31.00;26.50;;;;;;;;5039126;28;51166;-53
2022/01/13 12:05:14;;;;;;;;;30.00;27.50;;;;;;;;5040219;28;51364;-56
2022/01/13 12:08:32;;;;;;;;;24.75;19.25;;;;;;;;5038118;28;51113;-54
2022/01/13 12:11:39;;;;;;;;;27.50;25.75;;;;;;;;5036916;28;51066;-56
2022/01/13 12:14:24;;;;;;;;;35.75;27.00;;;;;;;;5032307;28;51150;-51
2022/01/13 12:17:29;;;;;;;;;30.75;28.25;;;;;;;;5038313;28;51088;-49
2022/01/13 12:20:26;;;;;;;;;31.25;28.50;;;;;;;;5022801;28;51815;-51
2022/01/13 12:23:31;;;;;;;;;27.00;26.25;;;;;;;;5038759;28;51152;-50
2022/01/13 12:26:46;;;;;;;;;32.50;28.00;;;;;;;;5039399;28;51173;-52
2022/01/13 12:29:33;;;;;;;;;28.00;25.00;;;;;;;;5039969;28;51025;-50
2022/01/13 12:32:33;;;;;;;;;30.25;27.50;;;;;;;;5039896;28;51060;-54
2022/01/13 12:35:40;;;;;;;;;34.00;28.75;;;;;;;;5039579;28;51042;-50
2022/01/13 12:38:27;;;;;;;;;36.75;30.50;;;;;;;;5039802;28;51109;-50
2022/01/13 12:41:16;;;;;;;;;30.75;24.50;;;;;;;;5039452;28;51115;-52
2022/01/13 12:44:20;;;;;;;;;29.50;27.00;;;;;;;;5039843;28;51192;-52
2022/01/13 12:47:07;;;;;;;;;26.00;22.00;;;;;;;;5039133;28;51170;-51
2022/01/13 12:50:21;;;;;;;;;32.25;28.75;;;;;;;;5039601;28;51125;-54
2022/01/13 12:53:10;;;;;;;;;33.00;28.75;;;;;;;;5039415;28;51062;-50
2022/01/13 12:56:04;;;;;;;;;11.25;7.25;;;;;;;;5039372;28;51206;-50
2022/01/13 12:58:56;;;;;;;;;31.25;28.00;;;;;;;;5038782;28;51150;-45
2022/01/13 13:01:41;;;;;;;;;31.25;26.50;;;;;;;;5039619;28;51384;-48
2022/01/13 13:04:37;;;;;;;;;31.50;29.00;;;;;;;;5039370;28;51074;-51
2022/01/13 13:07:22;;;;;;;;;32.00;28.75;;;;;;;;5039319;28;51192;-51
2022/01/13 13:10:09;;;;;;;;;32.50;28.75;;;;;;;;5039665;28;51041;-51
2022/01/13 13:12:57;;;;;;;;;37.25;31.25;;;;;;;;5038765;28;51122;-51
2022/01/13 13:15:51;;;;;;;;;34.50;31.00;;;;;;;;5039585;28;51691;-52
2022/01/13 13:18:40;;;;;;;;;36.00;30.00;;;;;;;;5024764;28;51093;-51
2022/01/13 13:21:30;;;;;;;;;35.75;29.25;;;;;;;;5039733;28;51053;-51
2022/01/13 13:24:24;;;;;;;;;37.50;31.50;;;;;;;;5039174;28;51400;-47
2022/01/13 13:27:10;;;;;;;;;25.75;23.25;;;;;;;;5039147;28;51176;-51
2022/01/13 13:30:05;;;;;;;;;32.50;22.00;;;;;;;;5039308;28;51127;-44
2022/01/13 13:32:50;;;;;;;;;36.25;29.75;;;;;;;;5038523;28;51155;-48
2022/01/13 13:35:37;;;;;;;;;36.75;29.00;;;;;;;;5039174;28;51098;-43
2022/01/13 13:38:23;;;;;;;;;41.75;30.50;;;;;;;;5038838;28;51050;-48
2022/01/13 13:41:12;;;;;;;;;28.00;27.75;;;;;;;;5038998;28;51557;-46
2022/01/13 13:44:19;;;;;;;;;31.00;28.75;;;;;;;;5038904;28;51196;-45
2022/01/13 13:47:08;;;;;;;;;34.25;27.00;;;;;;;;5038966;28;51105;-44
2022/01/13 13:50:03;;;;;;;;;36.75;30.00;;;;;;;;5038883;28;51439;-48
2022/01/13 13:53:09;;;;;;;;;32.50;29.25;;;;;;;;5038115;28;51197;-48
2022/01/13 13:56:06;;;;;;;;;38.75;28.75;;;;;;;;5035441;28;51219;-48
2022/01/13 13:59:11;;;;;;;;;33.75;29.50;;;;;;;;5038586;28;51169;-48
2022/01/13 14:02:03;;;;;;;;;31.50;29.00;;;;;;;;5039262;28;51155;-45
2022/01/13 14:04:55;;;;;;;;;38.25;31.00;;;;;;;;5039023;28;51168;-47
2022/01/13 14:07:51;;;;;;;;;35.25;30.00;;;;;;;;5038642;28;51567;-46
2022/01/13 14:10:57;;;;;;;;;38.00;30.25;;;;;;;;5042316;28;51143;-49
2022/01/13 14:13:45;;;;;;;;;38.50;29.25;;;;;;;;5042893;28;51144;-47
2022/01/13 14:16:36;;;;;;;;;35.00;30.00;;;;;;;;5042199;28;51330;-45
2022/01/13 14:19:42;;;;;;;;;31.50;29.00;;;;;;;;5042210;28;51162;-46
2022/01/13 14:22:29;;;;;;;;;34.75;30.25;;;;;;;;5041733;28;51073;-46
2022/01/13 14:25:15;;;;;;;;;29.25;28.50;;;;;;;;5042327;28;51194;-46
2022/01/13 14:28:22;;;;;;;;;30.25;27.25;;;;;;;;5039415;28;51013;-44
2022/01/13 14:31:08;;;;;;;;;40.50;31.00;;;;;;;;5041036;28;51171;-46
2022/01/13 14:34:15;;;;;;;;;26.50;24.75;;;;;;;;5042275;28;51572;-47
2022/01/13 14:37:07;;;;;;;;;37.00;31.75;;;;;;;;5041836;28;51003;-46
2022/01/13 14:40:15;;;;;;;;;33.50;26.25;;;;;;;;5042333;28;51162;-44
2022/01/13 14:43:40;;;;;;;;;31.50;29.50;;;;;;;;5038080;28;51075;-49
2022/01/13 14:46:26;;;;;;;;;34.25;30.00;;;;;;;;5041569;28;51195;-46
2022/01/13 14:49:12;;;;;;;;;31.75;28.00;;;;;;;;5041824;28;51669;-48
2022/01/13 14:52:06;;;;;;;;;36.25;29.75;;;;;;;;5041621;28;51058;-48
2022/01/13 14:54:55;;;;;;;;;38.00;29.75;;;;;;;;5041713;28;51112;-47
2022/01/13 14:58:05;;;;;;;;;34.75;27.00;;;;;;;;5041736;28;51131;-46
2022/01/13 15:01:19;;;;;;;;;38.75;32.00;;;;;;;;5041808;28;51132;-45
2022/01/13 15:04:04;;;;;;;;;33.00;28.75;;;;;;;;5041348;28;51296;-44
2022/01/13 15:06:48;;;;;;;;;34.00;30.00;;;;;;;;5041625;28;51076;-44
2022/01/13 15:09:38;;;;;;;;;37.00;29.50;;;;;;;;5035275;28;52245;-44
2022/01/13 15:12:41;;;;;;;;;35.75;30.25;;;;;;;;5041465;28;51136;-46
2022/01/13 15:15:28;;;;;;;;;33.50;29.50;;;;;;;;5036083;28;51010;-45
2022/01/13 15:18:17;;;;;;;;;37.75;29.75;;;;;;;;5041420;28;51159;-44
2022/01/13 15:21:01;;;;;;;;;40.75;32.25;;;;;;;;5036293;28;51045;-46
2022/01/13 15:23:48;;;;;;;;;39.75;31.00;;;;;;;;5041156;28;51083;-50
2022/01/13 15:26:41;;;;;;;;;35.50;29.50;;;;;;;;5039863;28;51206;-45
2022/01/13 15:29:35;;;;;;;;;37.75;28.00;;;;;;;;5041064;28;51286;-46
2022/01/13 15:32:19;;;;;;;;;31.75;28.00;;;;;;;;5041440;28;51761;-45
2022/01/13 15:35:06;;;;;;;;;36.50;31.00;;;;;;;;5039863;28;51092;-48
2022/01/13 15:38:12;;;;;;;;;30.00;23.25;;;;;;;;5040598;28;51512;-46
2022/01/13 15:41:29;;;;;;;;;30.50;25.25;;;;;;;;5040740;28;51172;-43
2022/01/13 15:44:37;;;;;;;;;36.25;30.25;;;;;;;;5040543;28;51450;-51
2022/01/13 15:47:21;;;;;;;;;30.75;23.00;;;;;;;;5040633;28;51143;-45
2022/01/13 15:50:07;;;;;;;;;33.00;27.75;;;;;;;;5040584;28;51188;-51
2022/01/13 15:52:57;;;;;;;;;42.50;31.75;;;;;;;;5039475;28;51248;-47
2022/01/13 15:55:42;;;;;;;;;37.00;30.00;;;;;;;;5019902;28;51130;-47
2022/01/13 15:58:28;;;;;;;;;39.25;32.75;;;;;;;;5020334;28;51070;-49
2022/01/13 16:01:16;;;;;;;;;27.75;27.25;;;;;;;;5016007;28;51458;-49
2022/01/13 16:04:04;;;;;;;;;27.75;25.75;;;;;;;;5019727;28;51164;-47
2022/01/13 16:06:49;;;;;;;;;35.25;32.00;;;;;;;;5020253;28;51134;-46
2022/01/13 16:09:34;;;;;;;;;34.50;28.50;;;;;;;;5019529;28;51162;-46
2022/01/13 16:12:18;;;;;;;;;21.75;17.25;;;;;;;;5020292;28;51185;-47
2022/01/13 16:15:07;;;;;;;;;38.00;29.50;;;;;;;;5019780;28;51152;-48
2022/01/13 16:17:52;;;;;;;;;35.00;30.50;;;;;;;;5020105;28;53702;-50
2022/01/13 16:20:48;;;;;;;;;40.00;30.00;;;;;;;;5016282;28;51157;-47
2022/01/13 16:23:45;;;;;;;;;34.00;29.00;;;;;;;;5020152;28;51102;-49
2022/01/13 16:26:30;;;;;;;;;36.75;31.50;;;;;;;;5019614;28;51120;-48
2022/01/13 16:29:39;;;;;;;;;34.75;29.75;;;;;;;;5019876;28;51204;-47
2022/01/13 16:32:44;;;;;;;;;39.25;29.75;;;;;;;;5018897;28;51567;-48
2022/01/13 16:35:36;;;;;;;;;34.00;29.75;;;;;;;;5019891;28;50970;-49
2022/01/13 16:38:21;;;;;;;;;36.50;31.25;;;;;;;;5019368;28;51098;-46
2022/01/13 16:41:16;;;;;;;;;34.50;30.25;;;;;;;;5019659;28;51187;-48
2022/01/13 16:44:04;;;;;;;;;40.50;31.75;;;;;;;;5019588;28;51051;-49
2022/01/13 16:46:54;;;;;;;;;41.00;30.50;;;;;;;;5019583;28;51126;-48
2022/01/13 16:49:42;;;;;;;;;43.25;31.25;;;;;;;;5019832;28;51232;-47
2022/01/13 16:52:31;;;;;;;;;38.00;33.00;;;;;;;;5019541;28;51523;-48
2022/01/13 16:55:21;;;;;;;;;44.25;35.25;;;;;;;;5020972;28;51138;-49
2022/01/13 16:58:06;;;;;;;;;42.75;33.00;;;;;;;;5019434;28;51714;-48
2022/01/13 17:00:51;;;;;;;;;36.50;31.75;;;;;;;;5012424;28;51217;-44
2022/01/13 17:03:58;;;;;;;;;38.50;32.00;;;;;;;;5019471;28;51170;-45